createdAt,value
2023-05-04T00:00:20.003Z,6.93
2023-05-04T00:02:47.103Z,6.22
2023-05-04T00:05:14.538Z,6.57
2023-05-04T00:07:41.686Z,7.00
2023-05-04T00:10:09.483Z,7.72
2023-05-04T00:12:36.736Z,6.57
2023-05-04T00:15:05.025Z,6.20
2023-05-04T00:17:32.379Z,6.68
2023-05-04T00:19:59.309Z,7.45
2023-05-04T00:22:26.310Z,7.03
2023-05-04T00:24:53.232Z,5.93
2023-05-04T00:27:20.211Z,6.43
2023-05-04T00:29:47.152Z,7.03
2023-05-04T00:32:14.089Z,7.32
2023-05-04T00:34:41.726Z,7.10
2023-05-04T00:37:08.680Z,6.82
2023-05-04T00:39:35.680Z,7.00
2023-05-04T00:42:03.185Z,5.95
2023-05-04T00:44:30.202Z,7.05
2023-05-04T00:46:57.646Z,6.35
2023-05-04T00:49:25.760Z,6.07
2023-05-04T00:51:55.321Z,6.18
2023-05-04T00:54:23.328Z,6.75
2023-05-04T00:56:51.048Z,8.05
2023-05-04T00:59:18.061Z,6.88
2023-05-04T01:01:45.051Z,6.43
2023-05-04T01:04:12.456Z,6.93
2023-05-04T01:06:53.299Z,7.35
2023-05-04T01:09:47.528Z,6.53
2023-05-04T01:12:21.877Z,7.15
2023-05-04T01:14:50.145Z,6.93
2023-05-04T01:17:17.502Z,6.55
2023-05-04T01:19:46.721Z,6.68
2023-05-04T01:22:13.667Z,5.72
2023-05-04T01:24:40.604Z,6.00
2023-05-04T01:27:27.431Z,5.90
2023-05-04T01:30:20.975Z,6.50
2023-05-04T01:32:50.029Z,6.70
2023-05-04T01:35:17.334Z,6.63
2023-05-04T01:37:47.083Z,5.38
2023-05-04T01:40:14.136Z,5.80
2023-05-04T01:42:41.205Z,5.97
2023-05-04T01:45:09.381Z,6.53
2023-05-04T01:47:36.439Z,6.35
2023-05-04T01:50:04.543Z,5.47
2023-05-04T01:52:31.916Z,5.60
2023-05-04T01:54:58.922Z,6.10
2023-05-04T01:57:25.853Z,6.45
2023-05-04T01:59:53.201Z,5.78
2023-05-04T02:02:20.212Z,5.63
2023-05-04T02:04:47.193Z,6.05
2023-05-04T02:07:14.301Z,6.07
2023-05-04T02:09:43.114Z,6.88
2023-05-04T02:12:10.157Z,6.38
2023-05-04T02:14:37.125Z,5.97
2023-05-04T02:17:04.445Z,6.65
2023-05-04T02:19:31.424Z,6.38
2023-05-04T02:21:58.327Z,5.90
2023-05-04T02:24:25.328Z,5.22
2023-05-04T02:26:52.198Z,5.97
2023-05-04T02:29:19.149Z,7.75
2023-05-04T02:31:46.112Z,6.07
2023-05-04T02:34:14.448Z,5.68
2023-05-04T02:36:47.147Z,6.38
2023-05-04T02:39:14.576Z,6.72
2023-05-04T02:41:41.515Z,5.95
2023-05-04T02:44:08.503Z,6.38
2023-05-04T02:46:35.437Z,6.45
2023-05-04T02:49:02.315Z,6.30
2023-05-04T02:51:29.288Z,6.40
2023-05-04T02:53:56.232Z,6.55
2023-05-04T02:56:24.429Z,5.45
2023-05-04T02:58:51.472Z,6.72
2023-05-04T03:01:18.651Z,7.45
2023-05-04T03:03:46.023Z,5.60
2023-05-04T03:06:13.026Z,6.80
2023-05-04T03:08:40.059Z,6.25
2023-05-04T03:11:07.153Z,5.85
2023-05-04T03:13:34.426Z,7.28
2023-05-04T03:16:02.594Z,6.03
2023-05-04T03:18:29.777Z,5.50
2023-05-04T03:20:57.654Z,6.30
2023-05-04T03:23:24.694Z,6.38
2023-05-04T03:25:51.631Z,5.90
2023-05-04T03:28:19.220Z,6.20
2023-05-04T03:30:46.233Z,6.07
2023-05-04T03:33:14.723Z,5.55
2023-05-04T03:35:42.083Z,5.22
2023-05-04T03:38:09.951Z,4.88
2023-05-04T03:40:36.904Z,5.78
2023-05-04T03:43:03.840Z,5.13
2023-05-04T03:45:31.445Z,5.60
2023-05-04T03:47:58.526Z,5.28
2023-05-04T03:50:26.741Z,5.07
2023-05-04T03:52:53.734Z,5.03
2023-05-04T03:55:24.367Z,5.22
2023-05-04T03:57:51.901Z,5.35
2023-05-04T04:00:19.424Z,5.78
2023-05-04T04:02:54.477Z,5.20
2023-05-04T04:05:21.606Z,5.10
2023-05-04T04:07:50.646Z,5.65
2023-05-04T04:10:17.988Z,5.85
2023-05-04T04:12:44.992Z,5.10
2023-05-04T04:15:12.255Z,5.47
2023-05-04T04:17:39.274Z,5.20
2023-05-04T04:20:07.517Z,5.82
2023-05-04T04:22:36.206Z,5.15
2023-05-04T04:25:03.477Z,4.72
2023-05-04T04:27:30.985Z,5.13
2023-05-04T04:29:57.911Z,5.85
2023-05-04T04:32:24.944Z,5.70
2023-05-04T04:34:51.948Z,5.85
2023-05-04T04:37:18.843Z,5.85
2023-05-04T04:39:45.798Z,6.22
2023-05-04T04:42:13.448Z,5.88
2023-05-04T04:44:40.912Z,5.95
2023-05-04T04:47:07.967Z,5.55
2023-05-04T04:49:34.975Z,5.20
2023-05-04T04:52:02.905Z,6.30
2023-05-04T04:54:29.843Z,5.78
2023-05-04T04:56:57.025Z,6.80
2023-05-04T04:59:24.904Z,7.18
2023-05-04T05:01:51.988Z,5.85
2023-05-04T05:04:19.927Z,6.68
2023-05-04T05:06:47.779Z,7.65
2023-05-04T05:09:14.773Z,7.40
2023-05-04T05:11:41.761Z,7.95
2023-05-04T05:14:08.739Z,7.85
2023-05-04T05:16:36.018Z,6.78
2023-05-04T05:19:03.638Z,6.57
2023-05-04T05:21:30.841Z,7.15
2023-05-04T05:23:57.996Z,7.68
2023-05-04T05:26:25.328Z,8.85
2023-05-04T05:28:52.310Z,6.90
2023-05-04T05:31:19.426Z,8.07
2023-05-04T05:33:46.494Z,7.85
2023-05-04T05:36:14.533Z,8.25
2023-05-04T05:38:41.545Z,7.35
2023-05-04T05:41:10.024Z,8.32
2023-05-04T05:43:38.842Z,7.35
2023-05-04T05:46:07.141Z,7.68
2023-05-04T05:48:34.474Z,7.60
2023-05-04T05:51:01.612Z,8.07
2023-05-04T05:53:28.663Z,8.57
2023-05-04T05:55:55.780Z,7.60
2023-05-04T05:58:23.170Z,7.55
2023-05-04T06:00:50.250Z,8.27
2023-05-04T06:03:17.399Z,7.63
2023-05-04T06:05:46.854Z,7.90
2023-05-04T06:08:16.402Z,7.80
2023-05-04T06:10:43.419Z,8.48
2023-05-04T06:13:13.149Z,7.75
2023-05-04T06:15:40.328Z,7.63
2023-05-04T06:18:07.588Z,7.22
2023-05-04T06:20:34.650Z,7.63
2023-05-04T06:23:01.743Z,8.88
2023-05-04T06:25:28.705Z,8.02
2023-05-04T06:27:55.918Z,7.70
2023-05-04T06:30:24.389Z,7.47
2023-05-04T06:32:51.538Z,8.30
2023-05-04T06:35:19.100Z,7.95
2023-05-04T06:37:46.415Z,7.22
2023-05-04T06:40:15.423Z,7.97
2023-05-04T06:42:42.541Z,7.50
2023-05-04T06:45:09.852Z,7.50
2023-05-04T06:47:37.710Z,7.65
2023-05-04T06:50:10.045Z,7.32
2023-05-04T06:52:43.186Z,7.35
2023-05-04T06:55:10.699Z,8.38
2023-05-04T06:57:37.722Z,7.85
2023-05-04T07:00:06.351Z,7.65
2023-05-04T07:02:33.657Z,7.90
2023-05-04T07:05:00.987Z,7.05
2023-05-04T07:07:28.077Z,7.53
2023-05-04T07:09:55.169Z,7.07
2023-05-04T07:12:22.214Z,7.45
2023-05-04T07:14:49.169Z,6.88
2023-05-04T07:17:16.440Z,7.07
2023-05-04T07:19:43.883Z,7.95
2023-05-04T07:22:11.093Z,8.00
2023-05-04T07:24:38.128Z,7.60
2023-05-04T07:27:05.169Z,6.32
2023-05-04T07:29:32.398Z,8.30
2023-05-04T07:31:59.535Z,7.18
2023-05-04T07:34:37.965Z,7.47
2023-05-04T07:37:12.423Z,7.97
2023-05-04T07:39:39.614Z,6.70
2023-05-04T07:42:08.132Z,6.82
2023-05-04T07:44:35.195Z,6.93
2023-05-04T07:47:02.268Z,7.43
2023-05-04T07:49:29.281Z,7.47
2023-05-04T07:51:56.468Z,6.72
2023-05-04T07:54:23.713Z,8.13
2023-05-04T07:56:50.916Z,7.00
2023-05-04T07:59:19.048Z,7.78
2023-05-04T08:01:47.310Z,7.07
2023-05-04T08:04:14.562Z,6.80
2023-05-04T08:06:41.709Z,6.90
2023-05-04T08:09:09.446Z,6.82
2023-05-04T08:11:37.844Z,6.47
2023-05-04T08:14:05.548Z,6.35
2023-05-04T08:16:32.876Z,6.43
2023-05-04T08:19:01.485Z,6.35
2023-05-04T08:21:28.596Z,6.15
2023-05-04T08:23:55.945Z,7.00
2023-05-04T08:26:23.776Z,6.88
2023-05-04T08:28:51.579Z,7.00
2023-05-04T08:31:18.855Z,6.93
2023-05-04T08:33:46.516Z,7.05
2023-05-04T08:36:13.567Z,6.53
2023-05-04T08:38:40.867Z,7.18
2023-05-04T08:41:09.092Z,5.90
2023-05-04T08:43:37.426Z,6.18
2023-05-04T08:46:05.209Z,6.65
2023-05-04T08:48:35.963Z,7.30
2023-05-04T08:51:07.104Z,5.90
2023-05-04T08:53:37.800Z,6.30
2023-05-04T08:56:09.673Z,6.68
2023-05-04T08:58:38.375Z,7.78
2023-05-04T09:01:08.526Z,6.50
2023-05-04T09:03:36.437Z,6.50
2023-05-04T09:06:04.159Z,6.50
2023-05-04T09:08:31.438Z,6.35
2023-05-04T09:10:58.498Z,7.38
2023-05-04T09:13:25.638Z,6.65
2023-05-04T09:15:56.934Z,6.82
2023-05-04T09:18:24.792Z,6.57
2023-05-04T09:20:51.825Z,6.10
2023-05-04T09:23:20.848Z,6.28
2023-05-04T09:25:52.759Z,6.10
2023-05-04T09:28:33.620Z,6.80
2023-05-04T09:31:01.485Z,6.22
2023-05-04T09:33:29.312Z,6.15
2023-05-04T09:35:59.393Z,6.35
2023-05-04T09:38:28.260Z,5.97
2023-05-04T09:40:56.118Z,5.78
2023-05-04T09:43:24.721Z,6.22
2023-05-04T09:45:51.973Z,5.88
2023-05-04T09:48:25.692Z,6.07
2023-05-04T09:51:00.468Z,7.13
2023-05-04T09:53:30.427Z,6.40
2023-05-04T09:56:13.569Z,6.10
2023-05-04T09:58:42.978Z,6.03
2023-05-04T10:01:10.628Z,5.30
2023-05-04T10:03:38.215Z,6.30
2023-05-04T10:06:09.276Z,5.22
2023-05-04T10:08:37.249Z,6.57
2023-05-04T10:11:04.947Z,5.45
2023-05-04T10:13:32.408Z,4.80
2023-05-04T10:16:45.863Z,4.40
2023-05-04T10:19:50.305Z,4.70
2023-05-04T10:22:44.396Z,5.00
2023-05-04T10:25:20.352Z,5.32
2023-05-04T10:28:04.735Z,5.13
2023-05-04T10:30:32.141Z,4.80
2023-05-04T10:32:59.682Z,5.47
2023-05-04T10:35:27.966Z,4.55
2023-05-04T10:37:56.645Z,4.95
2023-05-04T10:40:53.760Z,5.28
2023-05-04T10:43:24.355Z,5.70
2023-05-04T10:45:57.519Z,4.88
2023-05-04T10:48:37.493Z,4.85
2023-05-04T10:51:04.658Z,5.93
2023-05-04T10:53:33.347Z,5.80
2023-05-04T10:56:00.561Z,4.97
2023-05-04T10:58:30.390Z,4.65
2023-05-04T11:00:57.676Z,4.65
2023-05-04T11:03:25.389Z,4.47
2023-05-04T11:05:54.867Z,4.88
2023-05-04T11:08:26.274Z,5.05
2023-05-04T11:11:06.877Z,4.90
2023-05-04T11:13:35.932Z,4.25
2023-05-04T11:16:03.261Z,4.47
2023-05-04T11:18:34.216Z,5.25
2023-05-04T11:21:02.622Z,4.97
2023-05-04T11:23:30.642Z,4.47
2023-05-04T11:25:57.899Z,3.92
2023-05-04T11:28:38.072Z,4.50
2023-05-04T11:31:15.314Z,3.75
2023-05-04T11:33:49.866Z,4.93
2023-05-04T11:36:17.380Z,4.27
2023-05-04T11:38:45.323Z,4.18
2023-05-04T11:41:13.218Z,4.15
2023-05-04T11:43:42.756Z,4.50
2023-05-04T11:46:10.541Z,4.95
2023-05-04T11:48:38.670Z,4.78
2023-05-04T11:51:06.723Z,5.07
2023-05-04T11:53:41.208Z,4.20
2023-05-04T11:56:09.748Z,4.50
2023-05-04T11:58:37.587Z,4.95
2023-05-04T12:01:05.097Z,4.57
2023-05-04T12:03:52.330Z,4.97
2023-05-04T12:06:33.119Z,4.90
2023-05-04T12:09:06.028Z,4.30
2023-05-04T12:11:34.827Z,4.95
2023-05-04T12:14:10.727Z,4.70
2023-05-04T12:16:39.106Z,5.10
2023-05-04T12:19:12.725Z,5.35
2023-05-04T12:21:54.197Z,6.32
2023-05-04T12:24:26.766Z,4.78
2023-05-04T12:26:53.733Z,4.80
2023-05-04T12:29:20.912Z,4.38
2023-05-04T12:31:47.949Z,3.95
2023-05-04T12:34:14.981Z,3.80
2023-05-04T12:36:41.889Z,4.65
2023-05-04T12:39:08.841Z,4.10
2023-05-04T12:41:35.908Z,5.03
2023-05-04T12:44:02.924Z,4.55
2023-05-04T12:46:30.020Z,4.93
2023-05-04T12:48:57.504Z,4.70
2023-05-04T12:51:24.497Z,4.25
2023-05-04T12:53:51.453Z,4.18
2023-05-04T12:56:18.431Z,4.65
2023-05-04T12:58:45.414Z,4.15
2023-05-04T13:01:12.939Z,4.63
2023-05-04T13:03:40.190Z,4.00
2023-05-04T13:06:07.479Z,4.43
2023-05-04T13:08:34.438Z,4.05
2023-05-04T13:11:01.461Z,4.57
2023-05-04T13:13:29.465Z,4.57
2023-05-04T13:15:57.281Z,4.47
2023-05-04T13:18:27.291Z,4.35
2023-05-04T13:20:55.934Z,4.22
2023-05-04T13:23:23.736Z,4.03
2023-05-04T13:25:51.402Z,4.13
2023-05-04T13:28:18.940Z,4.22
2023-05-04T13:30:46.371Z,5.07
2023-05-04T13:33:27.905Z,5.72
2023-05-04T13:36:01.904Z,4.50
2023-05-04T13:38:29.005Z,4.22
2023-05-04T13:40:56.462Z,4.10
2023-05-04T13:43:23.952Z,4.50
2023-05-04T13:45:51.396Z,4.82
2023-05-04T13:48:18.452Z,5.07
2023-05-04T13:50:46.162Z,4.68
2023-05-04T13:53:13.280Z,5.00
2023-05-04T13:55:40.217Z,4.90
2023-05-04T13:58:07.337Z,4.60
2023-05-04T14:00:34.379Z,4.50
2023-05-04T14:03:01.626Z,5.00
2023-05-04T14:05:29.125Z,4.70
2023-05-04T14:07:56.043Z,4.85
2023-05-04T14:10:23.155Z,6.10
2023-05-04T14:12:50.284Z,5.75
2023-05-04T14:15:17.448Z,5.05
2023-05-04T14:17:44.428Z,5.47
2023-05-04T14:20:12.251Z,5.80
2023-05-04T14:22:41.297Z,5.50
2023-05-04T14:25:09.115Z,7.38
2023-05-04T14:27:36.372Z,5.78
2023-05-04T14:30:05.174Z,5.88
2023-05-04T14:32:32.281Z,5.70
2023-05-04T14:35:08.268Z,5.97
2023-05-04T14:37:38.928Z,5.60
2023-05-04T14:40:13.316Z,6.15
2023-05-04T14:42:40.384Z,7.57
2023-05-04T14:45:09.057Z,6.07
2023-05-04T14:47:36.463Z,6.80
2023-05-04T14:50:04.267Z,7.03
2023-05-04T14:52:31.803Z,6.95
2023-05-04T14:54:58.840Z,6.20
2023-05-04T14:57:25.952Z,7.25
2023-05-04T14:59:53.004Z,5.75
2023-05-04T15:02:20.747Z,5.88
2023-05-04T15:04:47.887Z,5.97
2023-05-04T15:07:20.892Z,5.90
2023-05-04T15:09:48.103Z,6.43
2023-05-04T15:12:18.238Z,6.88
2023-05-04T15:14:46.997Z,6.47
2023-05-04T15:17:14.286Z,6.28
2023-05-04T15:19:41.630Z,6.90
2023-05-04T15:22:09.003Z,6.40
2023-05-04T15:24:36.003Z,6.95
2023-05-04T15:27:03.742Z,7.03
2023-05-04T15:29:30.842Z,7.38
2023-05-04T15:31:57.819Z,6.50
2023-05-04T15:34:25.050Z,6.93
2023-05-04T15:36:52.653Z,6.35
2023-05-04T15:39:19.837Z,7.00
2023-05-04T15:41:46.994Z,5.68
2023-05-04T15:44:14.133Z,6.88
2023-05-04T15:46:41.250Z,6.60
2023-05-04T15:49:08.518Z,7.35
2023-05-04T15:51:35.573Z,7.43
2023-05-04T15:54:04.010Z,7.53
2023-05-04T15:56:31.707Z,7.68
2023-05-04T15:58:58.643Z,6.53
2023-05-04T16:01:25.804Z,6.72
2023-05-04T16:03:55.657Z,7.60
2023-05-04T16:06:23.734Z,7.63
2023-05-04T16:08:51.104Z,6.93
2023-05-04T16:11:18.167Z,6.38
2023-05-04T16:13:46.238Z,6.70
2023-05-04T16:16:13.297Z,7.57
2023-05-04T16:18:40.322Z,6.70
2023-05-04T16:21:08.881Z,7.03
2023-05-04T16:23:36.549Z,6.53
2023-05-04T16:26:03.775Z,6.75
2023-05-04T16:28:30.904Z,7.00
2023-05-04T16:30:57.950Z,5.63
2023-05-04T16:33:26.716Z,5.78
2023-05-04T16:35:54.031Z,5.90
2023-05-04T16:38:21.197Z,6.88
2023-05-04T16:40:48.489Z,5.57
2023-05-04T16:43:15.926Z,6.05
2023-05-04T16:45:43.054Z,5.63
2023-05-04T16:48:10.073Z,5.22
2023-05-04T16:50:37.065Z,6.03
2023-05-04T16:53:04.295Z,6.65
2023-05-04T16:55:31.614Z,5.53
2023-05-04T16:57:59.483Z,5.30
2023-05-04T17:00:26.590Z,5.65
2023-05-04T17:02:53.850Z,5.40
2023-05-04T17:05:21.456Z,5.50
2023-05-04T17:07:48.519Z,5.38
2023-05-04T17:10:15.616Z,4.70
2023-05-04T17:12:43.250Z,4.40
2023-05-04T17:15:11.711Z,5.10
2023-05-04T17:17:39.059Z,4.53
2023-05-04T17:20:09.320Z,3.63
2023-05-04T17:22:37.072Z,4.82
2023-05-04T17:25:05.692Z,4.95
2023-05-04T17:27:32.834Z,4.40
2023-05-04T17:29:59.806Z,4.07
2023-05-04T17:32:27.549Z,4.35
2023-05-04T17:34:56.615Z,3.95
2023-05-04T17:37:24.197Z,3.97
2023-05-04T17:39:51.217Z,4.38
2023-05-04T17:42:18.240Z,4.30
2023-05-04T17:44:45.243Z,3.85
2023-05-04T17:47:12.382Z,3.53
2023-05-04T17:49:39.384Z,4.28
2023-05-04T17:52:06.394Z,4.28
2023-05-04T17:54:33.518Z,4.32
2023-05-04T17:57:00.467Z,3.78
2023-05-04T17:59:27.581Z,3.97
2023-05-04T18:01:54.572Z,3.75
2023-05-04T18:04:21.781Z,3.63
2023-05-04T18:06:50.693Z,3.67
2023-05-04T18:09:19.541Z,3.20
2023-05-04T18:11:47.164Z,3.63
2023-05-04T18:14:14.146Z,4.10
2023-05-04T18:16:41.309Z,3.53
2023-05-04T18:19:08.764Z,4.38
2023-05-04T18:21:37.078Z,4.70
2023-05-04T18:24:04.890Z,3.75
2023-05-04T18:26:32.561Z,3.83
2023-05-04T18:29:07.647Z,3.28
2023-05-04T18:31:38.615Z,3.80
2023-05-04T18:34:06.072Z,4.70
2023-05-04T18:36:33.027Z,4.38
2023-05-04T18:39:00.786Z,2.97
2023-05-04T18:41:28.898Z,4.60
2023-05-04T18:43:56.066Z,5.07
2023-05-04T18:46:23.787Z,6.20
2023-05-04T18:48:50.941Z,12.40
2023-05-04T18:51:20.030Z,14.45
2023-05-04T18:53:48.237Z,5.35
2023-05-04T18:56:15.446Z,4.70
2023-05-04T18:58:42.485Z,13.50
2023-05-04T19:01:09.585Z,23.45
2023-05-04T19:03:37.170Z,10.50
2023-05-04T19:06:05.663Z,9.82
2023-05-04T19:08:33.817Z,4.30
2023-05-04T19:11:03.132Z,3.08
2023-05-04T19:13:31.165Z,2.88
2023-05-04T19:15:58.185Z,3.10
2023-05-04T19:18:25.257Z,4.85
2023-05-04T19:20:52.454Z,3.20
2023-05-04T19:23:19.579Z,2.53
2023-05-04T19:25:46.586Z,3.13
2023-05-04T19:28:13.702Z,4.47
2023-05-04T19:30:41.108Z,4.28
2023-05-04T19:33:11.140Z,4.30
2023-05-04T19:35:38.210Z,3.65
2023-05-04T19:38:06.771Z,5.45
2023-05-04T19:40:34.608Z,5.65
2023-05-04T19:43:01.786Z,4.38
2023-05-04T19:45:28.857Z,3.40
2023-05-04T19:47:56.003Z,2.35
2023-05-04T19:50:23.168Z,2.38
2023-05-04T19:52:50.436Z,2.63
2023-05-04T19:55:17.631Z,2.58
2023-05-04T19:57:44.701Z,2.25
2023-05-04T20:00:12.780Z,2.40
2023-05-04T20:02:39.886Z,2.40
2023-05-04T20:05:07.243Z,2.10
2023-05-04T20:07:34.237Z,2.25
2023-05-04T20:10:01.431Z,2.28
2023-05-04T20:12:28.497Z,2.20
2023-05-04T20:14:55.553Z,2.20
2023-05-04T20:17:22.699Z,3.20
2023-05-04T20:19:50.036Z,2.10
2023-05-04T20:22:17.084Z,2.20
2023-05-04T20:24:44.077Z,2.20
2023-05-04T20:27:11.449Z,2.28
2023-05-04T20:29:38.713Z,2.55
2023-05-04T20:32:07.130Z,2.70
2023-05-04T20:34:34.489Z,2.38
2023-05-04T20:37:01.500Z,2.80
2023-05-04T20:39:28.751Z,2.63
2023-05-04T20:41:55.820Z,3.08
2023-05-04T20:44:22.947Z,2.13
2023-05-04T20:46:49.892Z,2.50
2023-05-04T20:49:17.048Z,2.13
2023-05-04T20:51:43.973Z,2.80
2023-05-04T20:54:11.734Z,2.85
2023-05-04T20:56:38.832Z,3.30
2023-05-04T20:59:05.775Z,2.75
2023-05-04T21:01:33.637Z,2.95
2023-05-04T21:04:01.012Z,3.50
2023-05-04T21:06:28.114Z,4.05
2023-05-04T21:08:55.197Z,4.00
2023-05-04T21:11:22.206Z,5.57
2023-05-04T21:13:49.201Z,6.38
2023-05-04T21:16:16.441Z,7.82
2023-05-04T21:18:44.842Z,7.97
2023-05-04T21:21:11.955Z,8.85
2023-05-04T21:23:38.900Z,7.70
2023-05-04T21:26:06.232Z,9.18
2023-05-04T21:28:33.487Z,9.57
2023-05-04T21:31:00.917Z,9.27
2023-05-04T21:33:27.959Z,9.63
2023-05-04T21:35:54.934Z,10.70
2023-05-04T21:38:22.350Z,10.70
2023-05-04T21:40:49.632Z,10.10
2023-05-04T21:43:16.667Z,9.80
2023-05-04T21:45:43.746Z,9.13
2023-05-04T21:48:10.877Z,9.13
2023-05-04T21:50:37.913Z,7.97
2023-05-04T21:53:04.898Z,9.57
2023-05-04T21:55:31.872Z,8.55
2023-05-04T21:57:59.047Z,8.38
2023-05-04T22:00:26.246Z,7.82
2023-05-04T22:02:56.457Z,8.25
2023-05-04T22:05:23.614Z,8.05
2023-05-04T22:07:50.680Z,8.02
2023-05-04T22:10:18.457Z,8.00
2023-05-04T22:12:45.663Z,8.90
2023-05-04T22:15:14.133Z,9.20
2023-05-04T22:17:41.134Z,9.57
2023-05-04T22:20:09.244Z,11.90
2023-05-04T22:22:36.508Z,12.07
2023-05-04T22:25:03.739Z,12.10
2023-05-04T22:27:31.027Z,10.70
2023-05-04T22:29:57.992Z,10.98
2023-05-04T22:32:25.059Z,10.23
2023-05-04T22:34:52.188Z,10.98
2023-05-04T22:37:19.135Z,10.80
2023-05-04T22:39:46.183Z,11.40
2023-05-04T22:42:13.095Z,9.68
2023-05-04T22:44:40.050Z,9.80
2023-05-04T22:47:07.193Z,8.55
2023-05-04T22:49:34.173Z,8.70
2023-05-04T22:52:01.130Z,9.48
2023-05-04T22:54:28.163Z,7.75
2023-05-04T22:56:55.094Z,7.22
2023-05-04T22:59:22.051Z,7.50
2023-05-04T23:01:50.175Z,6.72
2023-05-04T23:04:17.228Z,6.43
2023-05-04T23:06:44.267Z,6.93
2023-05-04T23:09:11.812Z,5.68
2023-05-04T23:11:38.827Z,5.47
2023-05-04T23:14:06.137Z,5.20
2023-05-04T23:16:33.430Z,7.53
2023-05-04T23:19:00.436Z,6.95
2023-05-04T23:21:27.375Z,5.78
2023-05-04T23:23:54.447Z,6.22
2023-05-04T23:26:21.432Z,6.88
2023-05-04T23:28:48.415Z,7.22
2023-05-04T23:31:15.700Z,6.45
2023-05-04T23:33:43.430Z,5.32
2023-05-04T23:36:10.460Z,4.40
2023-05-04T23:38:37.375Z,4.57
2023-05-04T23:41:04.551Z,4.20
2023-05-04T23:43:31.902Z,4.82
2023-05-04T23:46:04.021Z,5.03
2023-05-04T23:48:32.216Z,5.85
2023-05-04T23:51:05.784Z,5.93
2023-05-04T23:53:36.815Z,6.57
2023-05-04T23:56:06.267Z,6.03
2023-05-04T23:58:34.481Z,6.25
